Time;durP1;ratioP1;P1;durP2;ratioP2;P2;SDS_P1;SDS_P2;PMS_P1;PMS_P2;Temp;Humidity;BMP_temperature;BMP_pressure;BME280_temperature;BME280_humidity;BME280_pressure;Samples;Min_cycle;Max_cycle;Signal;HPM_P1;HPM_P2
2022/03/15 00:01:03;;;;;;;12.02;4.30;;;;;;;9.35;100.00;102020.00;4974344;28;20081;-61
2022/03/15 00:03:28;;;;;;;8.73;3.58;;;;;;;9.30;100.00;102040.84;4968984;28;20030;-62
2022/03/15 00:05:54;;;;;;;8.93;3.78;;;;;;;9.29;100.00;102037.38;4973831;28;20045;-62
2022/03/15 00:08:20;;;;;;;9.02;3.75;;;;;;;9.24;100.00;102034.03;4973148;28;20035;-61
2022/03/15 00:10:47;;;;;;;9.98;4.45;;;;;;;9.17;100.00;102037.19;4953255;28;20054;-61
2022/03/15 00:13:12;;;;;;;7.45;3.85;;;;;;;9.12;100.00;102031.16;4955786;28;20038;-62
2022/03/15 00:15:38;;;;;;;9.63;3.88;;;;;;;9.07;100.00;102038.25;4973851;28;20045;-62
2022/03/15 00:18:04;;;;;;;10.48;4.43;;;;;;;9.03;100.00;102037.28;4946781;28;20027;-62
2022/03/15 00:20:29;;;;;;;8.00;2.97;;;;;;;8.98;100.00;102037.41;4972292;28;20022;-61
2022/03/15 00:22:57;;;;;;;8.43;3.92;;;;;;;8.89;100.00;102044.66;4972255;28;20470;-62
2022/03/15 00:25:22;;;;;;;9.88;3.72;;;;;;;8.86;100.00;102047.97;4973237;28;20038;-62
2022/03/15 00:27:53;;;;;;;18.75;6.25;;;;;;;8.89;100.00;102054.59;4967220;28;20502;-61
2022/03/15 00:30:23;;;;;;;7.93;4.05;;;;;;;8.89;100.00;102049.22;4968389;28;20042;-62
2022/03/15 00:32:51;;;;;;;10.57;4.38;;;;;;;8.92;100.00;102051.31;4954713;28;20038;-61
2022/03/15 00:35:18;;;;;;;11.65;4.53;;;;;;;8.89;100.00;102055.41;4956244;28;20121;-61
2022/03/15 00:37:51;;;;;;;12.38;4.40;;;;;;;8.94;100.00;102052.56;4970071;28;20062;-62
2022/03/15 00:40:17;;;;;;;12.10;4.45;;;;;;;8.94;100.00;102055.25;4973768;28;20053;-61
2022/03/15 00:42:50;;;;;;;11.63;4.00;;;;;;;8.93;100.00;102050.19;4973394;28;20549;-61
2022/03/15 00:45:23;;;;;;;12.38;4.10;;;;;;;8.94;100.00;102055.25;4967275;28;20031;-62
2022/03/15 00:47:53;;;;;;;11.75;4.88;;;;;;;8.94;100.00;102039.13;4971126;28;20066;-61
2022/03/15 00:50:19;;;;;;;12.18;3.88;;;;;;;8.96;100.00;102041.53;4955658;28;20034;-63
2022/03/15 00:52:46;;;;;;;9.75;4.95;;;;;;;8.98;100.00;102042.00;4972922;28;20031;-60
2022/03/15 00:55:12;;;;;;;11.45;5.13;;;;;;;9.00;100.00;102045.97;4969723;28;20045;-62
2022/03/15 00:57:38;;;;;;;13.88;4.32;;;;;;;9.00;100.00;102050.56;4973580;28;20037;-62
2022/03/15 01:00:05;;;;;;;12.90;4.50;;;;;;;9.01;100.00;102044.88;4972770;28;20489;-60
2022/03/15 01:02:30;;;;;;;13.15;4.00;;;;;;;9.04;100.00;102043.44;4967392;28;20039;-61
2022/03/15 01:04:56;;;;;;;14.70;4.95;;;;;;;9.05;100.00;102045.84;4954048;28;20031;-61
2022/03/15 01:07:23;;;;;;;10.77;4.78;;;;;;;9.09;100.00;102054.06;4972147;28;20621;-63
2022/03/15 01:09:52;;;;;;;18.35;4.93;;;;;;;9.10;100.00;102044.88;4954215;28;20125;-61
2022/03/15 01:12:18;;;;;;;20.05;6.07;;;;;;;9.09;100.00;102051.38;4969037;28;20037;-61
2022/03/15 01:14:43;;;;;;;13.40;5.30;;;;;;;9.14;100.00;102048.53;4973278;28;20406;-62
2022/03/15 01:17:10;;;;;;;18.88;5.55;;;;;;;9.17;100.00;102052.50;4972403;28;20094;-63
2022/03/15 01:19:36;;;;;;;14.77;5.95;;;;;;;9.20;100.00;102054.56;4973152;28;20560;-62
2022/03/15 01:22:02;;;;;;;25.67;7.22;;;;;;;9.21;100.00;102048.91;4965392;28;20041;-61
2022/03/15 01:24:28;;;;;;;19.90;6.38;;;;;;;9.21;100.00;102048.09;4956234;28;20141;-62
2022/03/15 01:26:54;;;;;;;24.75;6.35;;;;;;;9.17;100.00;102053.31;4952682;28;20129;-61
2022/03/15 01:29:21;;;;;;;23.20;6.18;;;;;;;9.20;100.00;102050.00;4972350;28;20042;-62
2022/03/15 01:31:47;;;;;;;24.38;6.90;;;;;;;9.22;100.00;102047.00;4962506;28;20035;-61
2022/03/15 01:34:13;;;;;;;21.00;7.07;;;;;;;9.22;100.00;102052.38;4971356;28;20074;-62
2022/03/15 01:36:38;;;;;;;27.83;7.35;;;;;;;9.22;100.00;102042.41;4973556;28;20043;-62
2022/03/15 01:39:05;;;;;;;32.70;8.88;;;;;;;9.24;100.00;102045.59;4972124;28;20510;-61
2022/03/15 01:41:40;;;;;;;23.38;6.80;;;;;;;9.22;100.00;102055.84;4973130;28;20038;-62
2022/03/15 01:44:20;;;;;;;29.58;7.55;;;;;;;9.14;100.00;102050.47;4937206;29;20051;-62
2022/03/15 01:46:47;;;;;;;35.95;8.80;;;;;;;9.12;100.00;102049.97;4951144;28;20046;-63
2022/03/15 01:49:18;;;;;;;32.17;7.00;;;;;;;9.16;100.00;102053.59;4973711;28;20026;-63
2022/03/15 01:51:47;;;;;;;31.77;7.35;;;;;;;9.13;100.00;102048.84;4972590;28;20049;-62
2022/03/15 01:54:13;;;;;;;31.88;8.70;;;;;;;9.13;100.00;102048.84;4958529;28;20031;-61
2022/03/15 01:56:41;;;;;;;32.92;7.03;;;;;;;9.09;100.00;102046.81;4969558;28;20037;-61
2022/03/15 01:59:12;;;;;;;25.45;7.38;;;;;;;9.07;100.00;102040.16;4955710;28;20082;-61
2022/03/15 02:01:39;;;;;;;29.00;8.63;;;;;;;9.11;100.00;102035.75;4954057;28;20438;-60
2022/03/15 02:04:05;;;;;;;31.92;8.20;;;;;;;9.17;100.00;102041.75;4961772;28;20054;-61
2022/03/15 02:06:34;;;;;;;31.13;6.93;;;;;;;9.21;100.00;102053.47;4953960;28;20099;-62
2022/03/15 02:09:07;;;;;;;23.02;7.70;;;;;;;9.11;100.00;102057.25;4971823;28;20043;-61
2022/03/15 02:11:34;;;;;;;29.13;7.88;;;;;;;9.05;100.00;102063.84;4961250;28;20039;-61
2022/03/15 02:14:00;;;;;;;29.92;8.90;;;;;;;9.06;100.00;102055.47;4969108;28;20033;-62
2022/03/15 02:16:25;;;;;;;32.50;8.73;;;;;;;9.09;100.00;102070.19;4971611;28;20043;-61
2022/03/15 02:18:50;;;;;;;33.58;8.85;;;;;;;9.08;100.00;102068.59;4972410;28;20114;-62
2022/03/15 02:21:16;;;;;;;34.38;7.57;;;;;;;9.05;100.00;102070.03;4966089;28;20669;-62
2022/03/15 02:23:43;;;;;;;30.67;7.97;;;;;;;9.10;100.00;102067.19;4971857;28;20030;-63
2022/03/15 02:26:09;;;;;;;31.17;7.25;;;;;;;9.11;100.00;102062.63;4972181;28;20130;-61
2022/03/15 02:28:34;;;;;;;37.65;8.68;;;;;;;9.13;100.00;102059.59;4971354;28;20035;-62
2022/03/15 02:31:00;;;;;;;25.60;6.68;;;;;;;8.99;100.00;102065.06;4960534;28;20130;-62
2022/03/15 02:33:25;;;;;;;25.95;6.85;;;;;;;8.99;100.00;102057.81;4972191;28;20038;-59
2022/03/15 02:35:51;;;;;;;29.60;6.82;;;;;;;8.97;100.00;102056.53;4967303;28;20110;-61
2022/03/15 02:38:16;;;;;;;20.70;6.22;;;;;;;8.98;100.00;102064.28;4965722;28;20381;-61
2022/03/15 02:40:41;;;;;;;26.35;7.85;;;;;;;8.98;100.00;102066.97;4972003;28;20089;-61
2022/03/15 02:43:07;;;;;;;26.25;7.63;;;;;;;9.03;100.00;102064.16;4972950;28;20039;-61
2022/03/15 02:45:32;;;;;;;24.10;7.10;;;;;;;9.03;100.00;102055.31;4967207;28;20397;-62
2022/03/15 02:47:58;;;;;;;22.48;8.15;;;;;;;8.95;100.00;102056.84;4975333;28;20247;-61
2022/03/15 02:50:23;;;;;;;29.08;8.23;;;;;;;8.95;100.00;102062.22;4975680;28;20046;-62
2022/03/15 02:52:49;;;;;;;28.38;7.82;;;;;;;9.02;100.00;102059.06;4975942;28;20488;-61
2022/03/15 02:55:16;;;;;;;33.92;8.32;;;;;;;9.02;100.00;102061.75;4974876;28;20039;-62
2022/03/15 02:57:45;;;;;;;34.63;9.38;;;;;;;8.94;100.00;102057.94;4975093;28;20405;-62
2022/03/15 03:00:11;;;;;;;28.10;7.28;;;;;;;8.89;100.00;102055.41;4949363;28;20031;-61
2022/03/15 03:02:36;;;;;;;34.50;8.43;;;;;;;8.94;100.00;102068.69;4956643;28;20047;-62
2022/03/15 03:05:02;;;;;;;33.25;8.65;;;;;;;8.92;100.00;102062.81;4973810;28;20041;-61
2022/03/15 03:07:28;;;;;;;26.33;7.82;;;;;;;8.82;100.00;102060.41;4967835;28;20586;-62
2022/03/15 03:09:53;;;;;;;24.67;8.50;;;;;;;8.76;100.00;102061.66;4945931;28;20525;-62
2022/03/15 03:12:19;;;;;;;31.25;7.93;;;;;;;8.87;100.00;102062.97;4972458;28;20066;-62
2022/03/15 03:14:46;;;;;;;30.45;7.60;;;;;;;8.80;100.00;102065.31;4973637;28;20031;-62
2022/03/15 03:17:12;;;;;;;28.77;8.15;;;;;;;8.78;100.00;102070.19;4971240;28;20433;-60
2022/03/15 03:19:38;;;;;;;30.15;7.40;;;;;;;8.70;100.00;102062.88;4972185;28;20097;-61
2022/03/15 03:22:05;;;;;;;19.08;6.57;;;;;;;8.67;100.00;102054.66;4967516;28;20035;-61
2022/03/15 03:24:31;;;;;;;25.98;7.30;;;;;;;8.70;100.00;102065.56;4971793;28;20042;-61
2022/03/15 03:26:56;;;;;;;22.00;6.57;;;;;;;8.72;100.00;102063.34;4970673;28;20035;-62
2022/03/15 03:29:22;;;;;;;21.25;6.97;;;;;;;8.77;100.00;102063.22;4973113;28;20385;-61
2022/03/15 03:31:49;;;;;;;22.00;6.70;;;;;;;8.79;100.00;102071.75;4952342;28;20114;-62
2022/03/15 03:34:15;;;;;;;22.02;6.13;;;;;;;8.75;100.00;102065.41;4973321;28;20031;-61
2022/03/15 03:36:40;;;;;;;19.55;7.05;;;;;;;8.76;100.00;102064.34;4969528;28;20402;-60
2022/03/15 03:39:07;;;;;;;16.52;6.13;;;;;;;8.68;100.00;102062.38;4972646;28;20118;-61
2022/03/15 03:41:33;;;;;;;15.07;5.57;;;;;;;8.66;100.00;102056.53;4971112;28;20042;-61
2022/03/15 03:44:00;;;;;;;19.90;4.82;;;;;;;8.72;100.00;102065.25;4971254;28;20123;-61
2022/03/15 03:46:27;;;;;;;15.05;5.55;;;;;;;8.71;100.00;102069.81;4966453;28;20031;-61
2022/03/15 03:48:53;;;;;;;17.20;5.60;;;;;;;8.61;100.00;102063.91;4972173;28;20038;-62
2022/03/15 03:51:19;;;;;;;14.82;5.38;;;;;;;8.61;100.00;102067.41;4973583;28;20035;-60
2022/03/15 03:53:44;;;;;;;16.33;4.45;;;;;;;8.66;100.00;102064.59;4959051;28;20042;-61
2022/03/15 03:56:10;;;;;;;17.60;5.43;;;;;;;8.65;100.00;102070.25;4970308;28;20046;-60
2022/03/15 03:58:35;;;;;;;14.38;4.70;;;;;;;8.63;100.00;102061.72;4948534;28;20093;-61
2022/03/15 04:01:01;;;;;;;17.15;6.22;;;;;;;8.63;100.00;102072.47;4972420;28;20105;-61
2022/03/15 04:03:28;;;;;;;14.85;5.15;;;;;;;8.63;100.00;102067.09;4973514;28;20449;-62
2022/03/15 04:05:56;;;;;;;15.45;4.70;;;;;;;8.59;100.00;102066.91;4959821;28;20038;-61
2022/03/15 04:08:23;;;;;;;12.90;4.82;;;;;;;8.70;100.00;102064.75;4971163;28;20074;-60
2022/03/15 04:10:50;;;;;;;16.77;5.65;;;;;;;8.73;100.00;102073.00;4971580;28;20048;-60
2022/03/15 04:13:16;;;;;;;15.02;4.50;;;;;;;8.69;100.00;102074.69;4972656;28;20054;-61
2022/03/15 04:15:42;;;;;;;10.77;5.43;;;;;;;8.66;100.00;102077.22;4966401;28;20039;-62
2022/03/15 04:18:07;;;;;;;13.88;4.95;;;;;;;8.68;100.00;102081.19;4961532;28;20560;-62
2022/03/15 04:20:33;;;;;;;14.10;5.38;;;;;;;8.71;100.00;102075.19;4954420;28;20142;-61
2022/03/15 04:22:58;;;;;;;13.02;4.70;;;;;;;8.62;100.00;102076.22;4972403;28;20054;-61
2022/03/15 04:25:25;;;;;;;16.50;5.18;;;;;;;8.57;100.00;102076.38;4968958;28;20039;-60
2022/03/15 04:27:52;;;;;;;7.78;3.97;;;;;;;8.58;100.00;102069.88;4972047;28;20490;-62
2022/03/15 04:30:18;;;;;;;12.68;4.57;;;;;;;8.53;100.00;102078.88;4972099;28;20034;-61
2022/03/15 04:32:44;;;;;;;15.23;5.45;;;;;;;8.48;100.00;102072.84;4965978;28;20077;-60
2022/03/15 04:35:09;;;;;;;11.90;4.63;;;;;;;8.48;100.00;102080.91;4969121;28;20034;-62
2022/03/15 04:37:35;;;;;;;10.88;4.93;;;;;;;8.47;100.00;102065.88;4965677;28;20072;-61
2022/03/15 04:40:01;;;;;;;9.63;4.50;;;;;;;8.43;100.00;102063.00;4968522;28;20246;-61
2022/03/15 04:42:26;;;;;;;12.00;4.15;;;;;;;8.40;100.00;102058.22;4953421;28;20482;-60
2022/03/15 04:44:52;;;;;;;11.02;4.53;;;;;;;8.37;100.00;102058.84;4966721;28;20039;-60
2022/03/15 04:47:17;;;;;;;12.13;5.15;;;;;;;8.39;100.00;102062.03;4969072;28;20035;-61
2022/03/15 04:49:44;;;;;;;9.90;4.70;;;;;;;8.42;100.00;102066.78;4970390;28;20042;-62
2022/03/15 04:52:09;;;;;;;10.48;4.10;;;;;;;8.41;100.00;102057.16;4969911;28;20098;-62
2022/03/15 04:54:35;;;;;;;11.45;4.60;;;;;;;8.40;100.00;102055.53;4958394;28;20094;-60
2022/03/15 04:57:00;;;;;;;13.48;4.65;;;;;;;8.39;100.00;102053.19;4952784;29;20126;-61
2022/03/15 04:59:27;;;;;;;19.20;5.13;;;;;;;8.34;100.00;102054.09;4956716;28;20496;-62
2022/03/15 05:01:52;;;;;;;11.15;4.82;;;;;;;8.28;100.00;102054.53;4962881;28;20129;-61
2022/03/15 05:04:18;;;;;;;12.90;4.43;;;;;;;8.23;100.00;102057.31;4966039;28;20398;-60
2022/03/15 05:06:43;;;;;;;9.70;4.32;;;;;;;8.27;100.00;102058.28;4961777;28;20085;-61
2022/03/15 05:09:09;;;;;;;11.35;5.47;;;;;;;8.21;100.00;102057.59;4964987;28;20035;-61
2022/03/15 05:11:34;;;;;;;11.73;4.47;;;;;;;8.25;100.00;102053.22;4969189;28;20147;-60
2022/03/15 05:14:01;;;;;;;12.13;5.30;;;;;;;8.17;100.00;102053.91;4965918;28;20038;-61
2022/03/15 05:16:26;;;;;;;11.85;4.50;;;;;;;8.19;100.00;102049.03;4957551;28;20019;-61
2022/03/15 05:18:54;;;;;;;8.93;3.92;;;;;;;8.18;100.00;102047.47;4968524;28;20394;-61
2022/03/15 05:21:23;;;;;;;9.25;3.75;;;;;;;8.25;100.00;102055.91;4968938;28;20066;-62
2022/03/15 05:23:49;;;;;;;11.38;4.30;;;;;;;8.09;100.00;102054.66;4970957;28;20125;-61
2022/03/15 05:26:15;;;;;;;10.88;4.68;;;;;;;8.08;100.00;102061.13;4967115;28;20114;-60
2022/03/15 05:28:42;;;;;;;12.93;4.18;;;;;;;7.98;100.00;102047.91;4967657;28;20406;-61
2022/03/15 05:31:08;;;;;;;10.60;3.75;;;;;;;7.89;100.00;102055.09;4966050;28;20034;-61
2022/03/15 05:33:34;;;;;;;11.60;4.30;;;;;;;7.83;100.00;102049.06;4949381;28;20022;-61
2022/03/15 05:36:00;;;;;;;7.65;3.67;;;;;;;7.83;100.00;102050.94;4946014;28;20446;-62
2022/03/15 05:38:26;;;;;;;10.07;3.15;;;;;;;7.75;100.00;102046.28;4965594;28;20138;-62
2022/03/15 05:40:52;;;;;;;10.95;4.38;;;;;;;7.68;100.00;102046.72;4951996;28;20497;-62
2022/03/15 05:43:21;;;;;;;10.77;3.28;;;;;;;7.65;100.00;102052.66;4970129;28;20121;-62
2022/03/15 05:45:53;;;;;;;6.75;3.55;;;;;;;7.68;100.00;102053.97;4969819;28;20030;-61
2022/03/15 05:48:19;;;;;;;8.82;4.07;;;;;;;7.67;100.00;102049.69;4970116;28;20502;-61
2022/03/15 05:50:45;;;;;;;10.02;3.72;;;;;;;7.77;100.00;102049.47;4970288;28;20089;-61
2022/03/15 05:53:11;;;;;;;5.13;3.40;;;;;;;7.77;100.00;102054.81;4963288;28;20026;-61
2022/03/15 05:55:37;;;;;;;9.55;3.80;;;;;;;7.80;100.00;102064.97;4969528;28;20437;-61
2022/03/15 05:58:03;;;;;;;12.45;4.25;;;;;;;7.76;100.00;102058.63;4969898;28;20077;-60
2022/03/15 06:00:32;;;;;;;8.70;3.88;;;;;;;7.75;100.00;102073.09;4961117;28;20038;-61
2022/03/15 06:02:58;;;;;;;15.32;4.20;;;;;;;7.81;100.00;102066.53;4970135;28;20038;-61
2022/03/15 06:05:24;;;;;;;8.10;4.47;;;;;;;7.73;100.00;102070.72;4969083;28;20081;-61
2022/03/15 06:07:52;;;;;;;8.85;3.85;;;;;;;7.65;100.00;102066.06;4965395;28;20035;-62
2022/03/15 06:10:21;;;;;;;8.18;4.15;;;;;;;7.70;100.00;102070.53;4950467;28;20045;-61
2022/03/15 06:12:47;;;;;;;10.65;3.85;;;;;;;7.78;100.00;102070.59;4968702;28;20034;-61
2022/03/15 06:15:15;;;;;;;7.15;3.20;;;;;;;7.71;100.00;102069.44;4940490;28;20046;-61
2022/03/15 06:17:48;;;;;;;12.00;3.85;;;;;;;7.71;100.00;102072.13;4958583;28;20804;-61
2022/03/15 06:20:16;;;;;;;8.95;4.13;;;;;;;7.80;100.00;102071.09;4966138;28;20390;-61
2022/03/15 06:22:42;;;;;;;9.35;4.35;;;;;;;7.77;100.00;102070.91;4956734;28;20086;-59
2022/03/15 06:25:09;;;;;;;9.73;4.13;;;;;;;7.77;100.00;102069.03;4918999;28;20375;-61
2022/03/15 06:27:35;;;;;;;10.15;3.80;;;;;;;7.66;100.00;102065.00;4954023;28;20066;-60
2022/03/15 06:30:04;;;;;;;11.65;4.43;;;;;;;7.70;100.00;102071.34;4954820;28;20125;-60
2022/03/15 06:32:31;;;;;;;9.40;4.07;;;;;;;7.70;100.00;102065.19;4958155;28;20054;-61
2022/03/15 06:34:58;;;;;;;9.52;3.72;;;;;;;7.73;100.00;102065.38;4969627;28;20039;-62
2022/03/15 06:37:26;;;;;;;8.30;4.18;;;;;;;7.68;100.00;102068.16;4964367;28;20034;-60
2022/03/15 06:39:51;;;;;;;9.15;3.85;;;;;;;7.66;100.00;102069.53;4945425;28;20066;-61
2022/03/15 06:42:17;;;;;;;7.63;4.28;;;;;;;7.60;100.00;102068.06;4969065;28;20031;-61
2022/03/15 06:44:43;;;;;;;10.35;3.30;;;;;;;7.68;100.00;102070.03;4968549;28;20691;-61
2022/03/15 06:47:09;;;;;;;7.38;3.55;;;;;;;7.78;100.00;102072.53;4961244;28;20035;-61
2022/03/15 06:49:35;;;;;;;8.20;3.67;;;;;;;7.77;100.00;102076.28;4958283;28;20066;-61
2022/03/15 06:52:00;;;;;;;9.32;3.67;;;;;;;7.78;100.00;102073.28;4953022;28;20319;-61
2022/03/15 06:54:26;;;;;;;10.15;3.90;;;;;;;7.81;100.00;102066.53;4965738;28;20054;-60
2022/03/15 06:56:53;;;;;;;7.47;3.25;;;;;;;7.83;100.00;102054.44;4954063;28;20031;-61
2022/03/15 06:59:19;;;;;;;11.35;3.22;;;;;;;7.89;100.00;102050.53;4938143;28;20047;-60
2022/03/15 07:01:45;;;;;;;9.23;3.83;;;;;;;7.90;100.00;102057.47;4941951;28;20049;-60
2022/03/15 07:04:13;;;;;;;5.65;2.88;;;;;;;7.85;100.00;102056.81;4942582;28;20109;-60
2022/03/15 07:06:38;;;;;;;6.50;3.53;;;;;;;7.84;100.00;102050.63;4963785;28;20039;-61
2022/03/15 07:09:04;;;;;;;8.57;4.25;;;;;;;7.87;100.00;102055.41;4963606;28;20042;-59
2022/03/15 07:11:29;;;;;;;6.68;3.40;;;;;;;7.86;100.00;102059.19;4967545;28;20074;-61
2022/03/15 07:13:55;;;;;;;7.72;3.40;;;;;;;7.90;100.00;102049.44;4968253;28;20122;-61
2022/03/15 07:16:24;;;;;;;8.68;3.80;;;;;;;7.95;100.00;102051.22;4961989;28;20046;-59
2022/03/15 07:18:49;;;;;;;7.65;3.75;;;;;;;8.02;100.00;102065.00;4966549;28;20034;-60
2022/03/15 07:21:15;;;;;;;10.32;3.95;;;;;;;8.03;100.00;102062.00;4969622;28;20093;-60
2022/03/15 07:23:40;;;;;;;10.00;4.55;;;;;;;8.00;100.00;102075.25;4950920;28;20035;-61
2022/03/15 07:26:07;;;;;;;8.55;3.92;;;;;;;8.05;100.00;102077.81;4963650;28;20105;-60
2022/03/15 07:28:32;;;;;;;14.75;3.97;;;;;;;8.05;100.00;102081.28;4967691;28;20054;-59
2022/03/15 07:30:58;;;;;;;11.63;4.28;;;;;;;7.83;100.00;102081.25;4951033;28;20070;-61
2022/03/15 07:33:23;;;;;;;8.02;3.78;;;;;;;7.96;100.00;102077.72;4933150;28;20075;-61
2022/03/15 07:35:49;;;;;;;12.00;4.57;;;;;;;7.95;100.00;102076.16;4967684;28;20034;-60
2022/03/15 07:38:17;;;;;;;9.50;3.67;;;;;;;7.99;100.00;102084.41;4967288;28;20042;-61
2022/03/15 07:40:43;;;;;;;9.40;3.90;;;;;;;7.88;100.00;102080.31;4967864;28;20034;-61
2022/03/15 07:43:09;;;;;;;11.35;4.43;;;;;;;7.92;100.00;102078.63;4969982;28;20090;-58
2022/03/15 07:45:35;;;;;;;7.88;3.90;;;;;;;8.00;100.00;102081.41;4952779;28;20042;-61
2022/03/15 07:48:00;;;;;;;6.28;3.25;;;;;;;8.05;100.00;102078.59;4968947;28;20035;-62
2022/03/15 07:50:26;;;;;;;11.40;3.55;;;;;;;8.04;100.00;102078.91;4970798;28;20038;-59
2022/03/15 07:52:52;;;;;;;10.05;4.28;;;;;;;8.06;100.00;102084.75;4967335;28;20398;-60
2022/03/15 07:55:19;;;;;;;11.48;4.70;;;;;;;8.02;100.00;102079.22;4940545;28;20054;-61
2022/03/15 07:57:44;;;;;;;9.80;4.57;;;;;;;8.13;100.00;102087.81;4948602;28;20026;-61
2022/03/15 08:00:10;;;;;;;9.40;4.45;;;;;;;8.20;100.00;102090.91;4968249;28;20093;-60
2022/03/15 08:02:42;;;;;;;11.43;4.43;;;;;;;8.27;100.00;102085.91;4969031;28;20433;-61
2022/03/15 08:05:08;;;;;;;10.73;4.65;;;;;;;8.23;100.00;102087.59;4964708;28;20095;-61
2022/03/15 08:07:37;;;;;;;11.68;3.95;;;;;;;8.17;100.00;102081.56;4963376;28;20118;-60
2022/03/15 08:10:07;;;;;;;10.38;4.45;;;;;;;8.17;100.00;102084.22;4963568;28;20402;-61
2022/03/15 08:12:34;;;;;;;11.17;4.33;;;;;;;8.29;100.00;102082.94;4944251;28;20018;-61
2022/03/15 08:14:59;;;;;;;10.13;4.00;;;;;;;8.33;100.00;102095.44;4968941;28;20340;-61
2022/03/15 08:17:25;;;;;;;14.05;4.65;;;;;;;8.42;100.00;102090.94;4961053;28;20039;-61
2022/03/15 08:19:51;;;;;;;8.35;4.65;;;;;;;8.53;100.00;102092.28;4970635;28;20034;-61
2022/03/15 08:22:17;;;;;;;11.80;4.55;;;;;;;8.52;100.00;102090.69;4961747;28;20039;-61
2022/03/15 08:24:42;;;;;;;12.82;3.85;;;;;;;8.66;100.00;102094.13;4963653;28;20050;-61
2022/03/15 08:27:08;;;;;;;14.82;5.43;;;;;;;8.65;100.00;102091.75;4960032;28;20043;-61
2022/03/15 08:29:34;;;;;;;8.75;4.07;;;;;;;8.68;100.00;102091.13;4969546;28;20118;-60
2022/03/15 08:31:59;;;;;;;10.23;4.70;;;;;;;8.66;100.00;102082.56;4969855;28;20113;-61
2022/03/15 08:34:25;;;;;;;11.57;5.07;;;;;;;8.69;100.00;102076.59;4950125;28;20048;-60
2022/03/15 08:36:53;;;;;;;10.10;4.90;;;;;;;8.75;100.00;102078.06;4971456;28;20323;-60
2022/03/15 08:39:21;;;;;;;11.45;4.95;;;;;;;8.80;100.00;102068.00;4963572;28;20015;-60
2022/03/15 08:41:49;;;;;;;11.05;4.63;;;;;;;8.92;100.00;102078.94;4969495;28;20042;-60
2022/03/15 08:44:14;;;;;;;11.15;4.78;;;;;;;8.88;100.00;102069.13;4953115;28;20446;-61
2022/03/15 08:46:40;;;;;;;11.23;4.55;;;;;;;8.87;100.00;102068.34;4954794;28;20063;-61
2022/03/15 08:49:09;;;;;;;9.70;4.45;;;;;;;8.92;100.00;102065.50;4971311;28;20039;-61
2022/03/15 08:51:35;;;;;;;9.90;4.47;;;;;;;8.93;100.00;102064.41;4972351;28;20035;-61
2022/03/15 08:54:00;;;;;;;12.85;4.55;;;;;;;9.00;100.00;102067.44;4962194;28;20548;-61
2022/03/15 08:56:26;;;;;;;8.55;3.83;;;;;;;9.04;100.00;102068.41;4967010;28;20022;-60
2022/03/15 08:58:52;;;;;;;10.18;5.07;;;;;;;9.14;100.00;102061.97;4969888;28;20457;-60
2022/03/15 09:01:17;;;;;;;11.18;4.45;;;;;;;9.18;100.00;102060.25;4967039;28;20090;-60
2022/03/15 09:03:42;;;;;;;13.07;4.38;;;;;;;9.24;100.00;102058.22;4950217;28;20367;-61
2022/03/15 09:06:08;;;;;;;10.50;4.75;;;;;;;9.33;100.00;102059.06;4967729;28;20129;-61
2022/03/15 09:08:34;;;;;;;10.80;4.57;;;;;;;9.29;100.00;102058.09;4968387;28;20045;-61
2022/03/15 09:11:03;;;;;;;10.10;5.15;;;;;;;9.24;100.00;102059.03;4951527;28;20023;-61
2022/03/15 09:13:28;;;;;;;11.48;5.82;;;;;;;9.33;100.00;102053.69;4970845;28;20042;-60
2022/03/15 09:15:54;;;;;;;9.10;4.55;;;;;;;9.34;100.00;102057.94;4949061;28;20414;-59
2022/03/15 09:18:20;;;;;;;6.75;3.75;;;;;;;9.47;100.00;102057.03;4967512;28;20023;-61
2022/03/15 09:20:45;;;;;;;9.65;4.07;;;;;;;9.45;100.00;102056.56;4967697;28;20486;-61
2022/03/15 09:23:10;;;;;;;11.77;4.30;;;;;;;9.57;100.00;102054.06;4946359;28;20045;-60
2022/03/15 09:25:37;;;;;;;8.77;4.07;;;;;;;9.60;100.00;102058.81;4968218;28;20047;-61
2022/03/15 09:28:03;;;;;;;9.13;4.38;;;;;;;9.67;99.71;102056.47;4964111;28;20549;-61
2022/03/15 09:30:30;;;;;;;9.10;4.35;;;;;;;9.81;99.58;102046.38;4968050;28;20039;-61
2022/03/15 09:32:57;;;;;;;6.68;3.38;;;;;;;9.88;99.44;102049.38;4969587;28;20030;-61
2022/03/15 09:35:23;;;;;;;8.55;4.20;;;;;;;9.87;99.08;102037.03;4948439;28;20019;-62
2022/03/15 09:37:49;;;;;;;9.30;4.00;;;;;;;9.91;98.38;102051.44;4965558;28;20075;-61
2022/03/15 09:40:20;;;;;;;7.53;3.38;;;;;;;9.83;97.96;102047.63;4969554;28;20106;-61
2022/03/15 09:42:49;;;;;;;6.35;3.33;;;;;;;9.96;98.07;102048.59;4946514;28;20039;-60
2022/03/15 09:45:20;;;;;;;8.00;3.47;;;;;;;9.98;97.44;102051.75;4952012;28;20026;-61
2022/03/15 09:47:50;;;;;;;9.13;3.33;;;;;;;10.07;96.81;102044.47;4969774;28;20058;-60
2022/03/15 09:50:18;;;;;;;;;;;;;;;10.19;96.81;102046.56;4950093;28;20299;-62
2022/03/15 09:52:44;;;;;;;9.20;3.72;;;;;;;10.26;96.70;102046.88;4965897;28;19914;-61
2022/03/15 09:55:11;;;;;;;7.05;3.58;;;;;;;10.30;96.43;102047.84;4969008;28;20043;-61
2022/03/15 09:57:38;;;;;;;7.88;3.65;;;;;;;10.24;95.73;102041.81;4950055;28;20113;-62
2022/03/15 10:00:04;;;;;;;7.60;3.97;;;;;;;10.31;96.03;102036.75;4968723;28;20288;-62
2022/03/15 10:02:40;;;;;;;10.52;3.92;;;;;;;10.31;95.06;102041.34;4968885;28;20051;-61
2022/03/15 10:05:06;;;;;;;13.07;3.92;;;;;;;10.28;95.40;102037.38;4968418;28;20850;-61
2022/03/15 10:07:32;;;;;;;6.65;4.15;;;;;;;10.35;94.90;102024.22;4964823;28;20067;-61
2022/03/15 10:10:00;;;;;;;7.90;3.33;;;;;;;10.41;94.81;102020.25;4967450;28;20027;-61
2022/03/15 10:12:27;;;;;;;11.13;4.13;;;;;;;10.46;94.38;102019.28;4969923;28;20030;-62
2022/03/15 10:14:52;;;;;;;8.20;3.53;;;;;;;10.50;94.80;102026.41;4961841;28;20027;-61
2022/03/15 10:17:18;;;;;;;8.65;3.72;;;;;;;10.58;94.55;102022.91;4967712;28;20089;-62
2022/03/15 10:19:54;;;;;;;10.93;3.80;;;;;;;10.75;93.12;102022.88;4969266;28;20034;-62
2022/03/15 10:22:21;;;;;;;7.47;3.40;;;;;;;10.79;92.68;102018.41;4960871;28;20131;-62
2022/03/15 10:24:46;;;;;;;5.05;3.45;;;;;;;10.74;92.34;102007.81;4964212;28;20113;-61
2022/03/15 10:27:12;;;;;;;10.63;3.53;;;;;;;10.82;92.16;102001.59;4969709;28;20118;-61
2022/03/15 10:29:39;;;;;;;10.20;3.15;;;;;;;10.86;92.19;102007.13;4969044;28;20070;-62
2022/03/15 10:32:04;;;;;;;5.97;3.40;;;;;;;10.89;91.61;101996.50;4966046;28;20066;-62
2022/03/15 10:34:30;;;;;;;7.75;3.67;;;;;;;10.95;90.76;102007.09;4966761;28;20089;-61
2022/03/15 10:36:58;;;;;;;7.78;3.67;;;;;;;10.96;90.53;102009.47;4964431;28;20061;-60
2022/03/15 10:39:25;;;;;;;10.38;3.42;;;;;;;11.01;90.07;102003.91;4964787;28;20110;-62
2022/03/15 10:42:04;;;;;;;9.55;3.13;;;;;;;11.00;89.63;102004.22;4968365;28;20113;-61
2022/03/15 10:44:35;;;;;;;5.05;2.80;;;;;;;11.12;89.58;101996.25;4966024;28;20146;-61
2022/03/15 10:47:04;;;;;;;9.63;3.50;;;;;;;11.14;88.82;101994.00;4968968;28;20042;-61
2022/03/15 10:49:31;;;;;;;4.93;2.65;;;;;;;11.20;89.43;101985.41;4967216;28;20058;-61
2022/03/15 10:51:57;;;;;;;5.43;2.25;;;;;;;11.21;88.11;101986.19;4964759;28;20510;-61
2022/03/15 10:54:27;;;;;;;8.07;2.53;;;;;;;11.25;87.09;101985.22;4948793;28;20529;-63
2022/03/15 10:56:58;;;;;;;5.90;2.47;;;;;;;11.33;86.75;101981.69;4968747;28;20054;-62
2022/03/15 10:59:25;;;;;;;6.97;2.08;;;;;;;11.44;85.93;101987.50;4948163;28;20033;-62
2022/03/15 11:01:53;;;;;;;8.60;2.00;;;;;;;11.53;85.50;101980.13;4965608;28;20023;-61
2022/03/15 11:04:20;;;;;;;11.80;2.83;;;;;;;11.61;84.55;101982.75;4962877;28;20041;-62
2022/03/15 11:06:50;;;;;;;10.80;3.17;;;;;;;11.64;84.33;101975.94;4968774;28;20462;-61
2022/03/15 11:09:31;;;;;;;4.60;2.30;;;;;;;11.66;83.81;101963.72;4971688;28;20038;-62
2022/03/15 11:12:05;;;;;;;8.95;2.50;;;;;;;11.63;84.30;101971.66;4968278;28;20031;-62
2022/03/15 11:14:40;;;;;;;4.80;2.33;;;;;;;11.69;84.04;101963.06;4963558;28;20144;-62
2022/03/15 11:17:16;;;;;;;7.25;2.92;;;;;;;11.78;84.00;101952.19;4970269;28;20054;-62